Time;durP1;ratioP1;P1;durP2;ratioP2;P2;SDS_P1;SDS_P2;PMS_P1;PMS_P2;Temp;Humidity;BMP_temperature;BMP_pressure;BME280_temperature;BME280_humidity;BME280_pressure;Samples;Min_cycle;Max_cycle;Signal;HPM_P1;HPM_P2
2022/01/13 00:02:23;;;;;;;17.67;7.28;;;;;;;-2.79;58.08;93979.59;4952373;28;20523;-89
2022/01/13 00:04:58;;;;;;;17.63;7.65;;;;;;;-2.82;58.49;93971.44;4950406;28;20044;-90
2022/01/13 00:07:40;;;;;;;23.25;8.20;;;;;;;-2.62;59.02;94002.59;4936231;29;20428;-90
2022/01/13 00:10:13;;;;;;;16.15;8.13;;;;;;;-2.63;59.55;94008.69;4952000;28;20062;-88
2022/01/13 00:13:08;;;;;;;24.23;9.55;;;;;;;-2.56;59.60;94020.66;4951581;28;20071;-90
2022/01/13 00:18:38;;;;;;;20.35;8.48;;;;;;;-2.73;60.71;94007.09;4967747;28;20062;-89
2022/01/13 00:21:16;;;;;;;19.40;8.95;;;;;;;-2.92;61.22;93976.78;4935998;29;20090;-89
2022/01/13 00:23:53;;;;;;;20.60;9.48;;;;;;;-2.60;60.99;94028.84;4950250;28;20039;-90
2022/01/13 00:26:41;;;;;;;28.23;8.82;;;;;;;-2.89;61.36;93985.91;4932419;29;20036;-89
2022/01/13 00:29:08;;;;;;;21.10;7.68;;;;;;;-2.42;61.22;94061.94;4948425;29;20563;-89
2022/01/13 00:31:46;;;;;;;20.23;8.60;;;;;;;-2.94;61.51;93984.63;4947918;29;20028;-89
2022/01/13 00:34:34;;;;;;;19.13;7.93;;;;;;;-2.72;61.71;94007.94;4935084;29;20060;-90
2022/01/13 00:37:12;;;;;;;18.40;8.40;;;;;;;-2.95;61.13;93977.91;4935185;29;20062;-89
2022/01/13 00:39:41;;;;;;;24.73;8.05;;;;;;;-2.80;61.06;94005.41;4935868;29;20042;-89
2022/01/13 00:42:14;;;;;;;16.83;7.85;;;;;;;-2.56;61.34;94040.38;4935642;29;20034;-89
2022/01/13 00:44:50;;;;;;;24.90;8.43;;;;;;;-2.67;60.84;94026.16;4937042;29;20040;-89
2022/01/13 00:47:20;;;;;;;28.02;8.63;;;;;;;-2.76;60.83;94020.28;4937562;29;20069;-89
2022/01/13 00:49:57;;;;;;;20.02;8.23;;;;;;;-2.63;60.21;94036.91;4938918;29;20493;-88
2022/01/13 00:52:53;;;;;;;15.32;7.88;;;;;;;-2.69;60.62;94024.75;4938996;29;20559;-89
2022/01/13 00:55:44;;;;;;;19.52;8.38;;;;;;;-2.66;60.24;94032.09;4939472;29;20035;-89
2022/01/13 00:58:15;;;;;;;22.85;8.48;;;;;;;-3.02;60.33;93981.28;4935528;29;20035;-89
2022/01/13 01:00:53;;;;;;;18.17;7.75;;;;;;;-3.00;61.02;93984.50;4950209;29;20095;-88
2022/01/13 01:03:23;;;;;;;19.13;7.63;;;;;;;-3.04;60.90;93983.22;4954576;28;20039;-88
2022/01/13 01:05:55;;;;;;;17.52;7.95;;;;;;;-2.82;61.40;94022.69;4962987;28;20035;-87
2022/01/13 01:08:21;;;;;;;16.67;7.43;;;;;;;-2.95;61.34;94006.09;4970061;28;20091;-88
2022/01/13 01:11:01;;;;;;;22.13;7.40;;;;;;;-2.77;60.79;94028.13;4954008;28;20508;-88
2022/01/13 01:13:30;;;;;;;23.48;8.77;;;;;;;-3.10;61.17;93976.22;4954576;29;20040;-88
2022/01/13 01:16:07;;;;;;;13.50;6.65;;;;;;;-2.94;61.15;94004.34;4970241;28;20050;-88
2022/01/13 01:18:50;;;;;;;27.13;7.80;;;;;;;-3.01;61.18;94001.63;4938058;29;20087;-90
2022/01/13 01:24:29;;;;;;;17.98;7.40;;;;;;;-2.63;60.45;94062.53;4954030;29;20055;-89
2022/01/13 01:27:01;;;;;;;16.60;7.28;;;;;;;-2.74;60.39;94050.88;4953701;28;20051;-89
2022/01/13 01:29:44;;;;;;;23.55;8.80;;;;;;;-3.14;61.17;93984.22;4938726;29;20485;-89
2022/01/13 01:32:17;;;;;;;18.38;7.80;;;;;;;-3.07;61.05;93993.81;4955515;29;20046;-89
2022/01/13 01:34:55;;;;;;;17.02;8.20;;;;;;;-3.08;61.37;93992.22;4953667;29;20054;-89
2022/01/13 01:37:33;;;;;;;14.43;6.25;;;;;;;-2.83;61.25;94039.84;4954860;29;20051;-90
2022/01/13 01:40:06;;;;;;;18.17;7.22;;;;;;;-2.86;60.82;94037.63;4938006;29;20047;-89
2022/01/13 01:42:52;;;;;;;;;;;;;;;;;;;;;
2022/01/13 01:45:19;;;;;;;19.63;6.47;;;;;;;-3.19;60.87;93991.59;4955436;28;20054;-89
2022/01/13 01:47:53;;;;;;;18.60;8.05;;;;;;;-2.93;60.53;94031.53;4970242;28;20042;-87
2022/01/13 01:50:32;;;;;;;14.07;7.18;;;;;;;-2.94;60.93;94028.19;4969170;28;20027;-90
2022/01/13 01:53:01;;;;;;;18.98;8.13;;;;;;;-3.12;60.88;94007.13;4947663;29;20198;-88
2022/01/13 01:55:29;;;;;;;21.30;7.88;;;;;;;-3.03;60.85;94024.06;4969635;28;20023;-89
2022/01/13 01:58:16;;;;;;;;;;;;;;;;;;;;;
2022/01/13 02:00:53;;;;;;;17.30;8.50;;;;;;;-3.12;60.65;93996.06;4953712;29;20138;-89
2022/01/13 02:03:33;;;;;;;16.75;7.00;;;;;;;-3.17;61.36;93994.00;4968546;28;20046;-89
2022/01/13 02:06:04;;;;;;;18.48;7.28;;;;;;;-2.72;61.58;94067.69;4953134;29;20400;-89
2022/01/13 02:08:32;;;;;;;21.92;8.57;;;;;;;-3.06;61.80;94023.56;4953226;28;20042;-87
2022/01/13 02:11:06;;;;;;;21.83;8.95;;;;;;;-3.15;61.44;94008.25;4937799;29;20034;-86
2022/01/13 02:13:51;;;;;;;19.98;8.02;;;;;;;-3.11;62.07;94007.91;4938078;29;20032;-90
2022/01/13 02:18:58;;;;;;;20.23;8.30;;;;;;;-3.12;62.15;94017.38;4953496;29;20043;-89
2022/01/13 02:21:51;;;;;;;31.58;9.25;;;;;;;-3.15;61.79;94003.13;4937164;29;20059;-90
2022/01/13 02:24:21;;;;;;;18.80;8.00;;;;;;;-3.05;62.49;94020.06;4964794;28;20035;-91
2022/01/13 02:26:58;;;;;;;21.65;8.13;;;;;;;-3.17;62.56;94012.72;4938285;29;20500;-89
2022/01/13 02:29:29;;;;;;;24.00;7.40;;;;;;;-2.89;62.22;94058.44;4936892;29;20035;-89
2022/01/13 02:31:55;;;;;;;15.45;7.35;;;;;;;-3.21;61.77;93996.09;4937804;29;20065;-90
2022/01/13 02:34:23;;;;;;;16.35;7.35;;;;;;;-2.93;62.14;94036.66;4937450;29;20067;-89
2022/01/13 02:36:59;;;;;;;18.13;7.63;;;;;;;-3.02;61.75;94025.66;4936870;29;20065;-90
2022/01/13 02:39:49;;;;;;;15.82;7.55;;;;;;;-2.95;61.67;94034.28;4953408;29;20035;-89
2022/01/13 02:42:15;;;;;;;17.90;7.57;;;;;;;-3.21;61.44;93992.75;4937103;29;20544;-89
2022/01/13 02:45:01;;;;;;;20.73;7.68;;;;;;;-3.24;61.35;94001.56;4936713;29;20047;-88
2022/01/13 02:48:10;;;;;;;23.58;7.93;;;;;;;-2.95;60.89;94038.59;4924604;29;20040;-89
2022/01/13 02:50:48;;;;;;;11.98;6.60;;;;;;;-3.18;61.04;93998.31;4936048;29;20047;-90
2022/01/13 02:53:23;;;;;;;18.73;7.78;;;;;;;-3.21;61.29;93988.41;4936412;29;20087;-90
2022/01/13 02:56:19;;;;;;;16.20;7.45;;;;;;;-3.21;60.97;93993.53;4933559;29;20035;-90
2022/01/13 02:58:58;;;;;;;20.85;7.00;;;;;;;-3.01;60.64;94029.03;4933416;29;20061;-90
2022/01/13 03:01:31;;;;;;;13.88;6.47;;;;;;;-3.28;61.18;94002.06;4923501;29;20055;-90
2022/01/13 03:04:06;;;;;;;15.45;7.15;;;;;;;-3.28;61.11;94010.53;4947702;29;20039;-88
2022/01/13 03:06:44;;;;;;;21.90;7.38;;;;;;;-3.33;61.32;94002.53;4945950;29;20110;-89
2022/01/13 03:09:15;;;;;;;16.40;6.28;;;;;;;-3.05;61.14;94048.25;4953888;28;20042;-89
2022/01/13 03:11:47;;;;;;;18.70;7.85;;;;;;;-3.08;60.96;94048.59;4968039;28;20042;-89
2022/01/13 03:14:15;;;;;;;16.42;6.30;;;;;;;-3.05;61.40;94053.38;4935769;29;20082;-89
2022/01/13 03:16:51;;;;;;;13.38;6.03;;;;;;;-3.08;60.95;94051.16;4954116;29;20031;-89
2022/01/13 03:19:17;;;;;;;21.70;7.70;;;;;;;-3.05;60.38;94063.63;4968080;28;20146;-90
2022/01/13 03:21:55;;;;;;;15.90;6.53;;;;;;;-3.21;59.74;94034.50;4936834;29;20031;-89
2022/01/13 03:24:25;;;;;;;14.02;6.00;;;;;;;-3.37;59.35;94008.94;4953106;29;20039;-89
2022/01/13 03:26:53;;;;;;;14.50;6.13;;;;;;;-3.16;58.93;94042.50;4936624;29;20106;-89
2022/01/13 03:29:30;;;;;;;11.63;5.38;;;;;;;-2.84;58.43;94092.06;4935847;29;20039;-89
2022/01/13 03:32:01;;;;;;;19.52;6.70;;;;;;;-3.36;58.90;94018.22;4936229;29;20045;-89
2022/01/13 03:34:29;;;;;;;13.30;5.88;;;;;;;-3.04;58.78;94072.91;4932110;29;20039;-89
2022/01/13 03:37:07;;;;;;;14.52;5.93;;;;;;;-3.34;59.08;94031.66;4933318;29;20031;-89
2022/01/13 03:39:44;;;;;;;11.50;4.90;;;;;;;-3.37;58.56;94027.66;4935710;29;20487;-89
2022/01/13 03:42:10;;;;;;;13.13;5.82;;;;;;;-3.35;58.36;94027.50;4968098;28;20054;-89
2022/01/13 03:44:38;;;;;;;12.68;5.70;;;;;;;-3.06;58.47;94062.00;4954278;28;20044;-90
2022/01/13 03:47:15;;;;;;;10.20;5.28;;;;;;;-3.34;58.20;94023.97;4949260;29;20044;-89
2022/01/13 03:49:55;;;;;;;14.38;4.63;;;;;;;-3.35;57.75;94022.38;4948649;29;20075;-88
2022/01/13 03:52:33;;;;;;;11.15;5.00;;;;;;;-2.91;57.19;94087.75;4950698;29;20047;-89
2022/01/13 03:55:30;;;;;;;10.43;4.55;;;;;;;-2.96;57.04;94091.63;4936268;29;20460;-90
2022/01/13 03:58:13;;;;;;;10.50;4.60;;;;;;;-2.96;57.40;94088.25;4935727;29;20524;-90
2022/01/13 04:01:21;;;;;;;13.85;5.88;;;;;;;-2.99;57.69;94086.03;4932699;29;20087;-89
2022/01/13 04:03:46;;;;;;;16.25;6.07;;;;;;;-3.05;58.44;94071.31;4916791;29;20044;-88
2022/01/13 04:06:12;;;;;;;13.30;6.07;;;;;;;-3.00;59.28;94076.72;4897662;29;20051;-87
2022/01/13 04:08:38;;;;;;;13.77;6.05;;;;;;;-3.20;58.85;94053.25;4913231;29;20071;-90
2022/01/13 04:11:04;;;;;;;14.98;5.80;;;;;;;-2.92;59.73;94094.66;4898109;29;20068;-87
2022/01/13 04:13:55;;;;;;;12.82;5.32;;;;;;;-2.95;59.79;94082.97;4913004;29;20067;-88
2022/01/13 04:16:27;;;;;;;15.02;7.10;;;;;;;-3.18;58.71;94059.00;4918648;29;20099;-89
2022/01/13 04:18:58;;;;;;;13.30;5.53;;;;;;;-3.03;59.37;94084.75;4917098;29;20044;-88
2022/01/13 04:21:25;;;;;;;15.73;6.47;;;;;;;-2.99;58.75;94088.59;4931908;29;20374;-88
2022/01/13 04:23:56;;;;;;;16.20;6.95;;;;;;;-3.05;58.93;94068.75;4951643;29;20032;-88
2022/01/13 04:26:28;;;;;;;20.55;6.72;;;;;;;-3.18;59.08;94048.75;4934801;29;20036;-89
2022/01/13 04:29:04;;;;;;;23.40;6.40;;;;;;;-2.90;58.32;94090.19;4935704;29;20182;-88
2022/01/13 04:31:29;;;;;;;12.73;5.80;;;;;;;-2.88;58.75;94088.25;4900379;29;20127;-89
2022/01/13 04:33:55;;;;;;;18.70;7.28;;;;;;;-2.88;58.96;94087.44;4917199;29;20476;-89
2022/01/13 04:36:20;;;;;;;13.13;5.60;;;;;;;-2.90;59.06;94087.63;4920325;29;20035;-89
2022/01/13 04:38:46;;;;;;;17.33;5.55;;;;;;;-3.05;58.31;94066.97;4919808;29;20039;-89
2022/01/13 04:41:14;;;;;;;13.35;5.95;;;;;;;-2.94;58.16;94082.00;4920178;29;20036;-89
2022/01/13 04:43:42;;;;;;;16.02;5.15;;;;;;;-2.95;57.75;94075.28;4915995;29;20071;-89
2022/01/13 04:46:07;;;;;;;10.75;5.03;;;;;;;-3.11;57.98;94052.25;4932179;29;20064;-88
2022/01/13 04:48:38;;;;;;;15.38;5.63;;;;;;;-3.01;57.72;94075.94;4934041;29;20042;-89
2022/01/13 04:51:18;;;;;;;8.95;4.93;;;;;;;-2.98;57.63;94079.94;4948923;29;20070;-89
2022/01/13 04:54:07;;;;;;;;;;;;;;;;;;;;;
2022/01/13 04:59:13;;;;;;;10.27;4.60;;;;;;;-3.16;57.07;94073.25;4933936;29;20055;-88
2022/01/13 05:01:48;;;;;;;11.13;5.00;;;;;;;-3.46;57.23;94028.66;4961610;28;20061;-90
2022/01/13 05:04:21;;;;;;;10.70;5.18;;;;;;;-3.44;56.77;94019.03;4955458;29;20047;-89
2022/01/13 05:06:51;;;;;;;9.90;4.20;;;;;;;-3.36;56.59;94028.47;4954750;29;20138;-90
2022/01/13 05:09:25;;;;;;;11.73;4.32;;;;;;;-2.92;56.41;94102.34;4940149;29;20059;-89
2022/01/13 05:11:56;;;;;;;13.32;4.97;;;;;;;-3.37;56.08;94029.44;4939751;29;20071;-89
2022/01/13 05:14:31;;;;;;;14.82;5.47;;;;;;;-3.26;56.18;94059.81;4971620;28;20095;-89
2022/01/13 05:17:11;;;;;;;;;;;;;;;-2.96;56.13;94109.56;4940194;29;20043;-89
2022/01/13 05:19:56;;;;;;;11.13;4.47;;;;;;;-3.38;56.29;94038.06;4937501;29;19914;-89
2022/01/13 05:22:27;;;;;;;9.43;4.25;;;;;;;-3.45;56.51;94032.78;4938171;29;20051;-88
2022/01/13 05:25:05;;;;;;;10.77;4.70;;;;;;;-3.19;56.17;94072.78;4922673;29;20515;-88
2022/01/13 05:27:33;;;;;;;11.07;4.68;;;;;;;-3.38;56.22;94054.25;4938160;29;20042;-90
2022/01/13 05:30:04;;;;;;;12.02;5.18;;;;;;;-3.45;56.10;94037.91;4955088;29;20038;-88
2022/01/13 05:32:35;;;;;;;8.40;4.22;;;;;;;-3.38;56.29;94061.13;4936836;29;20036;-89
2022/01/13 05:35:22;;;;;;;;;;;;;;;;;;;;;
2022/01/13 05:38:11;;;;;;;11.15;4.50;;;;;;;-3.56;56.14;94051.03;4970419;28;20031;-88
2022/01/13 05:40:41;;;;;;;15.35;4.90;;;;;;;-3.60;56.28;94044.69;4937982;29;20043;-87
2022/01/13 05:43:17;;;;;;;11.95;5.18;;;;;;;-3.35;56.31;94092.31;4953727;28;20126;-88
2022/01/13 05:46:01;;;;;;;;;;;;;;;;;;;;;
2022/01/13 05:48:38;;;;;;;10.18;4.88;;;;;;;-3.15;56.20;94120.97;4952535;29;20039;-88
2022/01/13 05:51:24;;;;;;;14.35;5.40;;;;;;;-3.45;56.88;94062.72;4968523;28;20078;-88
2022/01/13 05:53:52;;;;;;;11.73;4.57;;;;;;;-3.53;56.80;94047.34;4971805;28;20031;-88
2022/01/13 05:56:18;;;;;;;11.77;4.53;;;;;;;-3.58;56.28;94043.56;4972173;28;20027;-88
2022/01/13 05:58:51;;;;;;;10.52;4.07;;;;;;;-3.35;55.72;94071.06;4955942;29;20043;-88
2022/01/13 06:01:19;;;;;;;14.25;5.53;;;;;;;-3.05;56.05;94109.75;4956065;29;20437;-88
2022/01/13 06:07:17;;;;;;;10.50;5.20;;;;;;;-3.06;56.31;94095.31;4940275;29;20046;-88
2022/01/13 06:09:43;;;;;;;10.63;4.97;;;;;;;-3.07;56.88;94093.72;4940010;29;20059;-87
2022/01/13 06:12:09;;;;;;;20.63;5.78;;;;;;;-3.04;56.03;94093.41;4972196;28;20122;-87
2022/01/13 06:14:37;;;;;;;13.07;5.93;;;;;;;-2.97;56.13;94102.06;4974144;28;20500;-89
2022/01/13 06:17:03;;;;;;;14.70;5.63;;;;;;;-2.93;55.78;94103.28;4976867;28;20031;-87
2022/01/13 06:19:29;;;;;;;14.23;5.00;;;;;;;-3.08;56.18;94089.59;4957314;29;20046;-88
2022/01/13 06:21:54;;;;;;;13.30;5.20;;;;;;;-3.14;56.58;94086.69;4955712;29;20043;-88
2022/01/13 06:24:22;;;;;;;16.58;5.28;;;;;;;-2.99;57.12;94109.09;4955547;29;20043;-89
2022/01/13 06:26:53;;;;;;;21.15;7.07;;;;;;;-3.17;57.27;94093.91;4951558;29;20534;-89
2022/01/13 06:29:26;;;;;;;19.80;5.85;;;;;;;-3.40;57.63;94057.91;4952820;29;20051;-88
2022/01/13 06:31:54;;;;;;;22.00;6.20;;;;;;;-3.22;57.72;94091.84;4952548;29;20437;-87
2022/01/13 06:34:20;;;;;;;13.63;6.47;;;;;;;-3.31;58.26;94076.63;4952480;29;20032;-89
2022/01/13 06:36:45;;;;;;;17.63;7.00;;;;;;;-3.17;58.26;94107.50;4920371;29;20088;-88
2022/01/13 06:39:14;;;;;;;16.10;6.13;;;;;;;-3.17;57.56;94119.53;4936315;29;20043;-88
2022/01/13 06:41:40;;;;;;;13.90;6.53;;;;;;;-3.18;58.25;94126.41;4952371;29;20047;-89
2022/01/13 06:44:08;;;;;;;17.33;6.90;;;;;;;-3.41;57.72;94084.50;4936640;29;20031;-88
2022/01/13 06:46:36;;;;;;;14.32;6.30;;;;;;;-2.89;56.78;94160.16;4952068;28;20103;-88
2022/01/13 06:49:02;;;;;;;16.42;6.18;;;;;;;-3.33;56.85;94084.50;4952285;29;20043;-87
2022/01/13 06:51:28;;;;;;;12.43;6.22;;;;;;;-3.10;56.46;94127.38;4920359;29;20114;-88
2022/01/13 06:53:53;;;;;;;14.07;6.07;;;;;;;-3.03;57.12;94141.13;4935869;29;20482;-88
2022/01/13 06:56:21;;;;;;;12.88;6.25;;;;;;;-3.17;56.92;94112.63;4936297;29;20389;-88
2022/01/13 06:58:49;;;;;;;16.90;6.68;;;;;;;-3.22;56.83;94104.66;4920371;29;20063;-88
2022/01/13 07:04:57;;;;;;;15.13;5.80;;;;;;;-2.72;56.31;94172.78;4936957;29;20078;-88
2022/01/13 07:11:01;;;;;;;13.73;5.38;;;;;;;-2.74;56.26;94143.16;4937286;29;20037;-88
2022/01/13 07:17:25;;;;;;;16.92;8.00;;;;;;;-2.72;56.43;94129.22;4937205;29;20078;-88
2022/01/13 07:19:53;;;;;;;16.45;7.80;;;;;;;-2.49;56.60;94166.97;4919995;29;20162;-88
2022/01/13 07:22:19;;;;;;;19.75;6.45;;;;;;;-2.49;56.50;94172.09;4920371;29;20035;-88
2022/01/13 07:24:45;;;;;;;15.35;6.60;;;;;;;-2.40;56.24;94183.13;4954799;29;20039;-89
2022/01/13 07:27:11;;;;;;;18.30;6.53;;;;;;;-2.14;56.62;94181.13;4955809;29;20038;-88
2022/01/13 07:29:39;;;;;;;22.75;9.63;;;;;;;-0.42;53.57;94174.72;4955665;29;20362;-89
2022/01/13 07:32:16;;;;;;;;;;;;;;;;;;;;;
2022/01/13 07:34:59;;;;;;;29.95;6.82;;;;;;;4.41;41.78;94142.06;4939077;29;20041;-89
2022/01/13 07:37:27;;;;;;;23.95;7.47;;;;;;;6.15;38.49;94096.28;4939690;29;20043;-90
2022/01/13 07:40:13;;;;;;;;;;;;;;;;;;;;;
2022/01/13 07:46:05;;;;;;;15.00;6.68;;;;;;;10.81;30.08;94154.59;4956126;29;20412;-90
2022/01/13 07:52:32;;;;;;;24.52;8.45;;;;;;;13.07;25.86;94158.63;4956355;29;20090;-90
2022/01/13 07:59:17;;;;;;;14.35;7.32;;;;;;;15.16;22.75;94180.38;4956013;29;20043;-91
2022/01/13 08:05:07;;;;;;;22.48;8.05;;;;;;;16.66;21.22;94197.31;4970353;28;20138;-91
2022/01/13 08:07:35;;;;;;;23.73;8.63;;;;;;;17.75;19.77;94184.25;4938706;29;20050;-91
2022/01/13 08:10:02;;;;;;;24.45;8.90;;;;;;;18.15;19.68;94189.97;4970453;28;20381;-91
2022/01/13 08:12:27;;;;;;;17.35;8.55;;;;;;;18.52;19.19;94203.09;4954034;29;20046;-91
2022/01/13 08:21:46;;;;;;;19.05;9.05;;;;;;;21.04;15.90;94200.78;4955812;29;20054;-91
2022/01/13 08:24:12;;;;;;;19.10;9.18;;;;;;;21.55;15.40;94203.88;4954123;29;20449;-91
2022/01/13 08:26:37;;;;;;;27.15;8.68;;;;;;;22.11;14.93;94218.09;4954241;28;20078;-90
2022/01/13 08:29:04;;;;;;;19.05;9.10;;;;;;;22.48;14.95;94209.72;4938130;29;20053;-91
2022/01/13 08:31:30;;;;;;;18.50;8.40;;;;;;;22.62;14.25;94203.06;4938196;29;20469;-91
2022/01/13 08:33:58;;;;;;;21.52;8.43;;;;;;;22.91;14.03;94198.88;4955123;29;20154;-90
2022/01/13 08:36:27;;;;;;;19.67;9.18;;;;;;;22.87;13.72;94192.59;4954150;29;20063;-91
2022/01/13 08:38:52;;;;;;;17.52;8.48;;;;;;;21.96;13.54;94170.59;4938119;29;20110;-91
2022/01/13 08:41:21;;;;;;;17.45;8.27;;;;;;;22.36;13.45;94199.69;4938460;29;20131;-91
2022/01/13 08:44:05;;;;;;;18.60;8.23;;;;;;;21.44;14.08;94183.97;4954013;29;20069;-91
2022/01/13 08:46:33;;;;;;;17.25;8.73;;;;;;;21.98;13.16;94160.41;4952343;28;20076;-90
2022/01/13 08:49:19;;;;;;;16.33;7.60;;;;;;;21.88;12.91;94166.06;4956605;28;20114;-90
2022/01/13 08:51:54;;;;;;;15.77;7.93;;;;;;;20.98;13.85;94196.69;4937868;29;20085;-90
2022/01/13 08:55:09;;;;;;;11.30;6.35;;;;;;;21.56;12.73;94200.09;4955574;28;20054;-90
2022/01/13 09:01:53;;;;;;;13.00;6.60;;;;;;;22.21;11.71;94209.78;4955459;29;20112;-90
2022/01/13 09:04:50;;;;;;;12.25;6.53;;;;;;;21.59;11.67;94221.56;4954686;28;20063;-91
2022/01/13 09:07:29;;;;;;;12.10;5.38;;;;;;;20.04;12.16;94223.31;4938080;29;20095;-90
2022/01/13 09:13:56;;;;;;;11.98;4.95;;;;;;;17.22;13.28;94224.97;4959385;29;20095;-90
2022/01/13 09:20:25;;;;;;;22.40;7.18;;;;;;;14.53;18.54;94204.63;4973690;29;20086;-90
2022/01/13 09:26:50;;;;;;;15.27;6.72;;;;;;;14.80;17.93;94233.28;4958546;29;20053;-90
2022/01/13 09:29:16;;;;;;;16.55;6.90;;;;;;;13.96;20.48;94246.06;4957471;29;20047;-90
2022/01/13 09:31:43;;;;;;;20.17;7.72;;;;;;;14.01;20.68;94242.63;4940812;29;20502;-90
2022/01/13 09:34:25;;;;;;;19.70;8.65;;;;;;;13.69;21.65;94249.75;4940835;29;20094;-90
2022/01/13 09:36:51;;;;;;;17.73;7.80;;;;;;;12.68;22.23;94241.28;4973390;28;20058;-90
2022/01/13 09:39:16;;;;;;;16.30;7.60;;;;;;;11.88;24.04;94262.28;4957269;29;20476;-90
2022/01/13 09:41:45;;;;;;;19.65;7.78;;;;;;;11.63;24.23;94272.56;4940618;29;20370;-90
2022/01/13 09:48:13;;;;;;;16.65;6.97;;;;;;;10.65;24.85;94267.28;4958210;29;20078;-90
2022/01/13 09:50:39;;;;;;;22.85;8.15;;;;;;;10.63;25.09;94272.78;4924946;29;20117;-90
2022/01/13 09:53:04;;;;;;;17.35;7.43;;;;;;;10.84;25.19;94273.81;4940655;29;20039;-90
2022/01/13 09:55:43;;;;;;;23.05;8.77;;;;;;;11.42;24.23;94274.19;4924421;29;20396;-91
2022/01/13 09:58:12;;;;;;;26.38;9.18;;;;;;;10.21;26.13;94260.13;4957606;29;20039;-90
2022/01/13 10:00:39;;;;;;;22.75;8.35;;;;;;;10.55;25.33;94270.56;4940769;29;20083;-90
2022/01/13 10:03:26;;;;;;;18.60;8.13;;;;;;;11.21;24.29;94278.41;4940465;29;20050;-90
2022/01/13 10:24:46;;;;;;;25.70;7.97;;;;;;;11.51;24.65;94292.91;4938462;29;20061;-90
2022/01/13 10:27:23;;;;;;;16.05;7.30;;;;;;;12.16;22.22;94257.78;4920970;29;20126;-91
2022/01/13 10:38:10;;;;;;;17.45;6.47;;;;;;;12.27;21.93;94296.19;4937587;29;20042;-91
2022/01/13 11:21:12;;;;;;;22.08;6.80;;;;;;;11.49;20.24;94285.28;4937472;29;20055;-91
2022/01/13 11:28:27;;;;;;;11.45;5.35;;;;;;;11.75;20.20;94281.03;4936790;29;20055;-91
2022/01/13 11:30:55;;;;;;;13.45;4.85;;;;;;;11.65;18.76;94278.34;4934480;29;20040;-90
2022/01/13 11:33:23;;;;;;;11.43;4.57;;;;;;;11.46;19.04;94267.44;4929414;29;20071;-90
2022/01/13 11:35:55;;;;;;;16.38;6.57;;;;;;;10.32;21.48;94234.91;4933255;29;20089;-90
2022/01/13 11:38:30;;;;;;;11.82;5.68;;;;;;;10.32;21.13;94246.19;4947454;29;20504;-91
2022/01/13 11:41:28;;;;;;;16.30;6.72;;;;;;;9.23;23.98;94200.28;4942556;29;20039;-90
2022/01/13 11:44:17;;;;;;;16.33;6.60;;;;;;;9.13;21.78;94192.25;4934920;29;20047;-90
2022/01/13 11:46:47;;;;;;;14.07;5.55;;;;;;;9.36;21.35;94233.16;4948121;28;20044;-90
2022/01/13 11:52:32;;;;;;;17.73;7.13;;;;;;;8.95;26.98;94194.03;4966464;28;20120;-90
2022/01/13 11:55:41;;;;;;;16.98;7.05;;;;;;;9.96;24.52;94276.25;4964108;28;20043;-92
2022/01/13 11:58:24;;;;;;;13.40;5.53;;;;;;;9.18;23.62;94240.16;4931602;29;20040;-90
2022/01/13 12:01:19;;;;;;;;;;;;;;;10.11;22.57;94265.19;4939873;29;20039;-90
2022/01/13 12:03:54;;;;;;;11.18;4.55;;;;;;;9.52;21.25;94201.00;4953781;29;20379;-90
2022/01/13 12:07:00;;;;;;;14.82;6.63;;;;;;;8.93;25.66;94252.75;4939001;29;20040;-89
2022/01/13 12:09:35;;;;;;;15.50;6.43;;;;;;;8.43;25.92;94261.97;4936558;28;20081;-89
2022/01/13 12:12:03;;;;;;;20.52;8.38;;;;;;;8.72;28.66;94212.41;4952696;29;20074;-89
2022/01/13 12:14:45;;;;;;;11.32;5.43;;;;;;;8.98;23.99;94218.13;4923244;28;20040;-90
2022/01/13 12:17:27;;;;;;;22.85;8.85;;;;;;;8.36;29.63;94185.59;4936751;29;20067;-91
2022/01/13 12:20:03;;;;;;;18.58;8.63;;;;;;;8.31;30.44;94188.88;4940819;29;20110;-90
2022/01/13 12:22:37;;;;;;;11.93;5.50;;;;;;;7.80;28.57;94241.75;4941849;29;20047;-89
2022/01/13 12:25:13;;;;;;;15.43;6.13;;;;;;;8.12;26.98;94184.81;4953666;28;20043;-89
2022/01/13 12:28:11;;;;;;;20.40;7.80;;;;;;;8.33;27.89;94197.28;4953248;29;20041;-90
2022/01/13 12:30:41;;;;;;;16.55;6.28;;;;;;;9.11;27.44;94236.91;4947990;29;20436;-90
2022/01/13 12:33:48;;;;;;;21.00;9.65;;;;;;;8.83;29.68;94261.22;4953964;29;20050;-90
2022/01/13 12:36:41;;;;;;;17.00;7.63;;;;;;;8.38;30.31;94187.97;4937632;29;20043;-90
2022/01/13 12:39:13;;;;;;;24.77;8.65;;;;;;;8.27;29.66;94186.97;4936818;29;20405;-91
2022/01/13 12:42:17;;;;;;;23.67;8.57;;;;;;;8.42;30.41;94229.06;4936218;29;20130;-89
2022/01/13 12:48:16;;;;;;;18.88;7.50;;;;;;;8.32;29.38;94210.53;4957244;29;20066;-89
2022/01/13 12:50:58;;;;;;;22.83;8.65;;;;;;;7.89;30.04;94180.44;4955323;29;20046;-91
2022/01/13 12:53:42;;;;;;;18.02;8.27;;;;;;;7.99;30.78;94193.66;4919261;29;20086;-90
2022/01/13 12:56:23;;;;;;;19.98;9.02;;;;;;;7.99;30.83;94188.44;4936849;29;20067;-90
2022/01/13 12:59:02;;;;;;;8.75;4.22;;;;;;;7.49;30.82;94225.38;4952490;29;20118;-90
2022/01/13 13:01:32;;;;;;;22.77;8.48;;;;;;;8.11;29.47;94231.00;4953863;29;20056;-89
2022/01/13 13:04:02;;;;;;;15.32;7.38;;;;;;;8.42;29.46;94260.38;4939820;29;20070;-90
2022/01/13 13:06:37;;;;;;;23.00;8.90;;;;;;;7.98;30.61;94192.09;4939132;29;20046;-90
2022/01/13 13:09:23;;;;;;;18.38;7.03;;;;;;;7.91;29.84;94187.00;4953704;29;20570;-89
2022/01/13 13:12:08;;;;;;;20.80;7.60;;;;;;;8.37;28.38;94179.34;4920838;29;20106;-90
2022/01/13 13:17:50;;;;;;;;;;;;;;;;;;;;;
2022/01/13 13:21:08;;;;;;;16.75;7.70;;;;;;;8.81;27.93;94221.47;4921868;29;20048;-90
2022/01/13 13:23:52;;;;;;;15.98;7.30;;;;;;;8.94;26.33;94189.06;4936166;29;20126;-90
2022/01/13 13:26:30;;;;;;;16.25;7.50;;;;;;;9.01;27.49;94199.38;4935771;29;20032;-90
2022/01/13 13:29:16;;;;;;;18.27;8.63;;;;;;;9.01;28.61;94226.28;4951546;28;20122;-89
2022/01/13 13:31:47;;;;;;;21.13;8.27;;;;;;;8.90;28.53;94230.53;4936006;29;20076;-89
2022/01/13 13:34:28;;;;;;;20.08;8.27;;;;;;;8.51;29.44;94187.72;4952660;28;20122;-91
2022/01/13 13:37:08;;;;;;;16.05;6.82;;;;;;;8.65;28.30;94224.81;4950419;28;20047;-90
2022/01/13 13:39:45;;;;;;;21.88;9.07;;;;;;;9.01;29.13;94233.34;4940781;29;20068;-90
2022/01/13 13:42:44;;;;;;;;;;;;;;;;;;;;;
2022/01/13 13:45:18;;;;;;;21.13;7.10;;;;;;;7.97;29.98;94195.75;4940675;29;20046;-90
2022/01/13 13:48:21;;;;;;;16.80;7.50;;;;;;;8.66;28.77;94210.72;4935582;29;20078;-90
2022/01/13 13:50:58;;;;;;;17.75;8.07;;;;;;;8.02;29.42;94177.59;4935395;29;20062;-89
2022/01/13 13:53:42;;;;;;;;;;;;;;;;;;;;;
2022/01/13 13:56:21;;;;;;;24.17;8.60;;;;;;;8.18;29.77;94176.09;4927944;29;20043;-90
2022/01/13 13:58:52;;;;;;;20.95;7.97;;;;;;;8.36;28.97;94219.50;4928299;29;20344;-90
2022/01/13 14:01:20;;;;;;;19.67;8.15;;;;;;;8.31;28.73;94177.66;4930675;29;20035;-90
2022/01/13 14:04:08;;;;;;;12.15;5.50;;;;;;;7.68;29.50;94192.22;4953520;28;20091;-90
2022/01/13 14:07:08;;;;;;;15.52;7.03;;;;;;;8.17;28.91;94216.22;4938683;29;20134;-89
2022/01/13 14:09:41;;;;;;;18.75;7.97;;;;;;;8.09;29.71;94219.19;4950363;28;20154;-90
2022/01/13 14:12:26;;;;;;;18.73;6.75;;;;;;;8.29;28.15;94218.84;4971961;28;20041;-90
2022/01/13 14:15:29;;;;;;;16.45;7.13;;;;;;;8.44;28.10;94240.03;4986374;28;20069;-90
2022/01/13 14:18:18;;;;;;;20.58;8.38;;;;;;;8.59;27.17;94225.72;4975465;28;20043;-90
2022/01/13 14:20:49;;;;;;;19.60;7.10;;;;;;;8.95;27.21;94246.28;4956590;28;20511;-90
2022/01/13 14:23:29;;;;;;;23.55;7.63;;;;;;;8.75;26.29;94175.38;4922675;29;20032;-89
2022/01/13 14:26:25;;;;;;;15.02;7.38;;;;;;;8.68;26.96;94188.59;4935989;29;20473;-89
2022/01/13 14:28:54;;;;;;;18.08;6.57;;;;;;;8.43;26.69;94180.28;4962170;28;20102;-89
2022/01/13 14:31:41;;;;;;;14.00;6.32;;;;;;;8.47;26.65;94174.34;4970713;28;20049;-90
2022/01/13 14:34:37;;;;;;;;;;;;;;;;;;;;;
2022/01/13 14:37:19;;;;;;;;;;;;;;;;;;;;;
2022/01/13 14:40:11;;;;;;;17.95;7.30;;;;;;;8.32;26.70;94185.25;4950605;28;20039;-89
2022/01/13 14:42:50;;;;;;;;;;;;;;;;;;;;;
2022/01/13 14:45:31;;;;;;;16.80;6.60;;;;;;;7.67;27.22;94167.16;4953254;28;20036;-91
2022/01/13 14:48:01;;;;;;;20.42;6.70;;;;;;;8.05;27.18;94213.63;4937825;29;20044;-90
2022/01/13 14:50:58;;;;;;;15.68;6.57;;;;;;;8.02;26.38;94208.88;4953207;28;20047;-90
2022/01/13 14:53:57;;;;;;;14.68;6.85;;;;;;;7.41;28.19;94163.97;4964887;28;20381;-90
2022/01/13 14:56:39;;;;;;;25.40;6.85;;;;;;;7.78;28.81;94182.00;4946136;29;20069;-88